sensor_id;sensor_type;location;lat;lon;timestamp;P1;durP1;ratioP1;P2;durP2;ratioP2
32236;SDS011;18726;44.732;10.550;2024-01-30T00:02:39;152.50;;;58.33;;
32236;SDS011;18726;44.732;10.550;2024-01-30T00:05:43;64.57;;;41.25;;
32236;SDS011;18726;44.732;10.550;2024-01-30T00:08:46;144.88;;;58.15;;
32236;SDS011;18726;44.732;10.550;2024-01-30T00:11:52;107.32;;;44.35;;
32236;SDS011;18726;44.732;10.550;2024-01-30T00:14:55;82.68;;;43.17;;
32236;SDS011;18726;44.732;10.550;2024-01-30T00:17:59;99.18;;;42.22;;
32236;SDS011;18726;44.732;10.550;2024-01-30T00:21:03;60.95;;;39.97;;
32236;SDS011;18726;44.732;10.550;2024-01-30T00:24:07;96.32;;;39.50;;
32236;SDS011;18726;44.732;10.550;2024-01-30T00:27:11;89.00;;;40.03;;
32236;SDS011;18726;44.732;10.550;2024-01-30T00:30:14;74.57;;;36.40;;
32236;SDS011;18726;44.732;10.550;2024-01-30T00:33:18;54.83;;;34.83;;
32236;SDS011;18726;44.732;10.550;2024-01-30T00:36:22;49.13;;;35.90;;
32236;SDS011;18726;44.732;10.550;2024-01-30T00:39:26;45.05;;;36.05;;
32236;SDS011;18726;44.732;10.550;2024-01-30T00:42:30;72.00;;;37.30;;
32236;SDS011;18726;44.732;10.550;2024-01-30T00:45:34;62.42;;;39.13;;
32236;SDS011;18726;44.732;10.550;2024-01-30T00:48:37;64.15;;;37.15;;
32236;SDS011;18726;44.732;10.550;2024-01-30T00:51:40;53.85;;;36.58;;
32236;SDS011;18726;44.732;10.550;2024-01-30T00:54:44;47.45;;;34.70;;
32236;SDS011;18726;44.732;10.550;2024-01-30T00:57:48;46.13;;;34.63;;
32236;SDS011;18726;44.732;10.550;2024-01-30T01:00:51;58.58;;;32.45;;
32236;SDS011;18726;44.732;10.550;2024-01-30T01:03:55;91.03;;;30.80;;
32236;SDS011;18726;44.732;10.550;2024-01-30T01:06:59;149.70;;;34.47;;
32236;SDS011;18726;44.732;10.550;2024-01-30T01:10:02;223.55;;;39.55;;
32236;SDS011;18726;44.732;10.550;2024-01-30T01:13:07;153.38;;;38.85;;
32236;SDS011;18726;44.732;10.550;2024-01-30T01:16:10;78.53;;;34.45;;
32236;SDS011;18726;44.732;10.550;2024-01-30T01:19:14;86.93;;;40.67;;
32236;SDS011;18726;44.732;10.550;2024-01-30T01:22:18;76.32;;;42.35;;
32236;SDS011;18726;44.732;10.550;2024-01-30T01:25:21;83.97;;;39.65;;
32236;SDS011;18726;44.732;10.550;2024-01-30T01:28:25;78.95;;;38.33;;
32236;SDS011;18726;44.732;10.550;2024-01-30T01:31:28;87.97;;;43.55;;
32236;SDS011;18726;44.732;10.550;2024-01-30T01:34:32;91.97;;;41.58;;
32236;SDS011;18726;44.732;10.550;2024-01-30T01:37:36;92.78;;;36.75;;
32236;SDS011;18726;44.732;10.550;2024-01-30T01:40:40;66.05;;;33.85;;
32236;SDS011;18726;44.732;10.550;2024-01-30T01:43:44;65.03;;;32.38;;
32236;SDS011;18726;44.732;10.550;2024-01-30T01:46:48;73.03;;;35.15;;
32236;SDS011;18726;44.732;10.550;2024-01-30T01:49:52;55.67;;;33.75;;
32236;SDS011;18726;44.732;10.550;2024-01-30T01:52:56;51.28;;;31.45;;
32236;SDS011;18726;44.732;10.550;2024-01-30T01:56:00;54.22;;;30.92;;
32236;SDS011;18726;44.732;10.550;2024-01-30T01:59:05;47.65;;;32.80;;
32236;SDS011;18726;44.732;10.550;2024-01-30T02:02:12;68.28;;;32.58;;
32236;SDS011;18726;44.732;10.550;2024-01-30T02:05:19;66.03;;;30.65;;
32236;SDS011;18726;44.732;10.550;2024-01-30T02:08:23;45.45;;;32.85;;
32236;SDS011;18726;44.732;10.550;2024-01-30T02:11:27;58.70;;;32.42;;
32236;SDS011;18726;44.732;10.550;2024-01-30T02:14:31;44.58;;;31.35;;
32236;SDS011;18726;44.732;10.550;2024-01-30T02:17:35;34.83;;;31.02;;
32236;SDS011;18726;44.732;10.550;2024-01-30T02:20:39;41.28;;;30.23;;
32236;SDS011;18726;44.732;10.550;2024-01-30T02:23:46;37.58;;;30.35;;
32236;SDS011;18726;44.732;10.550;2024-01-30T02:26:52;39.15;;;33.08;;
32236;SDS011;18726;44.732;10.550;2024-01-30T02:29:55;38.53;;;30.70;;
32236;SDS011;18726;44.732;10.550;2024-01-30T02:32:59;39.45;;;31.08;;
32236;SDS011;18726;44.732;10.550;2024-01-30T02:36:03;40.28;;;30.77;;
32236;SDS011;18726;44.732;10.550;2024-01-30T02:39:07;46.05;;;30.10;;
32236;SDS011;18726;44.732;10.550;2024-01-30T02:42:11;42.92;;;32.55;;
32236;SDS011;18726;44.732;10.550;2024-01-30T02:45:15;37.88;;;29.02;;
32236;SDS011;18726;44.732;10.550;2024-01-30T02:48:19;34.08;;;28.80;;
32236;SDS011;18726;44.732;10.550;2024-01-30T02:51:22;37.53;;;30.17;;
32236;SDS011;18726;44.732;10.550;2024-01-30T02:54:26;41.97;;;29.55;;
32236;SDS011;18726;44.732;10.550;2024-01-30T02:57:29;36.38;;;28.70;;
32236;SDS011;18726;44.732;10.550;2024-01-30T03:00:33;46.05;;;31.55;;
32236;SDS011;18726;44.732;10.550;2024-01-30T03:03:37;37.50;;;27.35;;
32236;SDS011;18726;44.732;10.550;2024-01-30T03:06:45;41.15;;;31.70;;
32236;SDS011;18726;44.732;10.550;2024-01-30T03:09:51;34.97;;;30.92;;
32236;SDS011;18726;44.732;10.550;2024-01-30T03:12:55;38.88;;;31.25;;
32236;SDS011;18726;44.732;10.550;2024-01-30T03:15:59;37.58;;;29.80;;
32236;SDS011;18726;44.732;10.550;2024-01-30T03:19:04;36.00;;;28.90;;
32236;SDS011;18726;44.732;10.550;2024-01-30T03:22:10;37.70;;;29.20;;
32236;SDS011;18726;44.732;10.550;2024-01-30T03:25:14;36.30;;;30.58;;
32236;SDS011;18726;44.732;10.550;2024-01-30T03:28:17;35.58;;;28.33;;
32236;SDS011;18726;44.732;10.550;2024-01-30T03:31:21;48.15;;;33.80;;
32236;SDS011;18726;44.732;10.550;2024-01-30T03:34:24;38.03;;;30.25;;
32236;SDS011;18726;44.732;10.550;2024-01-30T03:37:28;43.90;;;31.85;;
32236;SDS011;18726;44.732;10.550;2024-01-30T03:40:32;56.20;;;33.83;;
32236;SDS011;18726;44.732;10.550;2024-01-30T03:43:35;47.45;;;32.95;;
32236;SDS011;18726;44.732;10.550;2024-01-30T03:46:39;42.75;;;32.22;;
32236;SDS011;18726;44.732;10.550;2024-01-30T03:49:43;39.67;;;32.90;;
32236;SDS011;18726;44.732;10.550;2024-01-30T03:52:47;41.72;;;31.77;;
32236;SDS011;18726;44.732;10.550;2024-01-30T03:55:50;40.25;;;29.65;;
32236;SDS011;18726;44.732;10.550;2024-01-30T03:58:54;40.83;;;34.45;;
32236;SDS011;18726;44.732;10.550;2024-01-30T04:01:59;39.85;;;31.60;;
32236;SDS011;18726;44.732;10.550;2024-01-30T04:05:03;37.90;;;30.83;;
32236;SDS011;18726;44.732;10.550;2024-01-30T04:08:07;43.67;;;31.20;;
32236;SDS011;18726;44.732;10.550;2024-01-30T04:11:11;37.20;;;28.05;;
32236;SDS011;18726;44.732;10.550;2024-01-30T04:14:14;41.35;;;32.22;;
32236;SDS011;18726;44.732;10.550;2024-01-30T04:17:18;39.70;;;32.25;;
32236;SDS011;18726;44.732;10.550;2024-01-30T04:20:21;39.85;;;31.27;;
32236;SDS011;18726;44.732;10.550;2024-01-30T04:23:25;40.55;;;33.65;;
32236;SDS011;18726;44.732;10.550;2024-01-30T04:26:29;44.40;;;31.13;;
32236;SDS011;18726;44.732;10.550;2024-01-30T04:29:32;41.90;;;32.10;;
32236;SDS011;18726;44.732;10.550;2024-01-30T04:32:36;38.50;;;32.13;;
32236;SDS011;18726;44.732;10.550;2024-01-30T04:35:40;41.92;;;33.08;;
32236;SDS011;18726;44.732;10.550;2024-01-30T04:38:44;36.17;;;30.52;;
32236;SDS011;18726;44.732;10.550;2024-01-30T04:41:47;48.33;;;34.75;;
32236;SDS011;18726;44.732;10.550;2024-01-30T04:44:51;37.35;;;31.38;;
32236;SDS011;18726;44.732;10.550;2024-01-30T04:47:55;38.35;;;29.08;;
32236;SDS011;18726;44.732;10.550;2024-01-30T04:50:58;39.95;;;30.73;;
32236;SDS011;18726;44.732;10.550;2024-01-30T04:54:02;36.88;;;32.22;;
32236;SDS011;18726;44.732;10.550;2024-01-30T04:57:06;38.72;;;32.42;;
32236;SDS011;18726;44.732;10.550;2024-01-30T05:00:13;42.22;;;34.08;;
32236;SDS011;18726;44.732;10.550;2024-01-30T05:03:18;48.95;;;34.03;;
32236;SDS011;18726;44.732;10.550;2024-01-30T05:06:26;45.03;;;34.15;;
32236;SDS011;18726;44.732;10.550;2024-01-30T05:09:30;56.30;;;38.35;;
32236;SDS011;18726;44.732;10.550;2024-01-30T05:12:34;42.97;;;32.47;;
32236;SDS011;18726;44.732;10.550;2024-01-30T05:15:37;36.15;;;30.73;;
32236;SDS011;18726;44.732;10.550;2024-01-30T05:18:41;36.22;;;28.88;;
32236;SDS011;18726;44.732;10.550;2024-01-30T05:21:44;39.70;;;29.40;;
32236;SDS011;18726;44.732;10.550;2024-01-30T05:24:48;34.60;;;28.55;;
32236;SDS011;18726;44.732;10.550;2024-01-30T05:27:52;35.83;;;28.35;;
32236;SDS011;18726;44.732;10.550;2024-01-30T05:30:56;30.70;;;26.75;;
32236;SDS011;18726;44.732;10.550;2024-01-30T05:34:00;31.60;;;27.23;;
32236;SDS011;18726;44.732;10.550;2024-01-30T05:37:04;29.42;;;25.23;;
32236;SDS011;18726;44.732;10.550;2024-01-30T05:40:08;28.88;;;25.88;;
32236;SDS011;18726;44.732;10.550;2024-01-30T05:43:13;30.92;;;25.70;;
32236;SDS011;18726;44.732;10.550;2024-01-30T05:46:17;30.25;;;24.70;;
32236;SDS011;18726;44.732;10.550;2024-01-30T05:49:20;32.03;;;25.38;;
32236;SDS011;18726;44.732;10.550;2024-01-30T05:52:25;33.10;;;25.98;;
32236;SDS011;18726;44.732;10.550;2024-01-30T05:55:28;27.88;;;24.08;;
32236;SDS011;18726;44.732;10.550;2024-01-30T05:58:33;26.90;;;23.20;;
32236;SDS011;18726;44.732;10.550;2024-01-30T06:01:36;31.40;;;24.38;;
32236;SDS011;18726;44.732;10.550;2024-01-30T06:04:40;28.75;;;23.95;;
32236;SDS011;18726;44.732;10.550;2024-01-30T06:07:43;28.95;;;25.75;;
32236;SDS011;18726;44.732;10.550;2024-01-30T06:16:52;29.48;;;25.13;;
32236;SDS011;18726;44.732;10.550;2024-01-30T06:19:56;30.20;;;25.67;;
32236;SDS011;18726;44.732;10.550;2024-01-30T06:22:59;31.27;;;26.10;;
32236;SDS011;18726;44.732;10.550;2024-01-30T06:26:03;36.63;;;25.30;;
32236;SDS011;18726;44.732;10.550;2024-01-30T06:29:08;29.75;;;25.02;;
32236;SDS011;18726;44.732;10.550;2024-01-30T06:32:12;36.17;;;26.67;;
32236;SDS011;18726;44.732;10.550;2024-01-30T06:35:16;32.70;;;27.00;;
32236;SDS011;18726;44.732;10.550;2024-01-30T06:38:21;33.67;;;26.92;;
32236;SDS011;18726;44.732;10.550;2024-01-30T06:41:24;35.45;;;28.77;;
32236;SDS011;18726;44.732;10.550;2024-01-30T06:44:27;44.50;;;26.40;;
32236;SDS011;18726;44.732;10.550;2024-01-30T06:47:31;34.80;;;27.35;;
32236;SDS011;18726;44.732;10.550;2024-01-30T06:50:35;33.63;;;27.38;;
32236;SDS011;18726;44.732;10.550;2024-01-30T06:53:39;35.58;;;27.58;;
32236;SDS011;18726;44.732;10.550;2024-01-30T06:56:42;37.45;;;27.90;;
32236;SDS011;18726;44.732;10.550;2024-01-30T06:59:45;31.05;;;25.90;;
32236;SDS011;18726;44.732;10.550;2024-01-30T07:02:49;33.75;;;27.33;;
32236;SDS011;18726;44.732;10.550;2024-01-30T07:05:52;31.45;;;27.98;;
32236;SDS011;18726;44.732;10.550;2024-01-30T07:08:56;34.15;;;27.48;;
32236;SDS011;18726;44.732;10.550;2024-01-30T07:12:00;32.78;;;25.63;;
32236;SDS011;18726;44.732;10.550;2024-01-30T07:15:03;29.90;;;25.88;;
32236;SDS011;18726;44.732;10.550;2024-01-30T07:18:11;29.25;;;25.80;;
32236;SDS011;18726;44.732;10.550;2024-01-30T07:21:16;30.00;;;25.38;;
32236;SDS011;18726;44.732;10.550;2024-01-30T07:24:20;28.13;;;25.10;;
32236;SDS011;18726;44.732;10.550;2024-01-30T07:27:23;31.02;;;27.75;;
32236;SDS011;18726;44.732;10.550;2024-01-30T07:30:27;30.75;;;27.45;;
32236;SDS011;18726;44.732;10.550;2024-01-30T07:33:31;30.70;;;26.73;;
32236;SDS011;18726;44.732;10.550;2024-01-30T07:36:34;31.77;;;27.85;;
32236;SDS011;18726;44.732;10.550;2024-01-30T07:39:38;30.88;;;27.42;;
32236;SDS011;18726;44.732;10.550;2024-01-30T07:42:42;30.42;;;27.17;;
32236;SDS011;18726;44.732;10.550;2024-01-30T07:45:45;28.73;;;25.83;;
32236;SDS011;18726;44.732;10.550;2024-01-30T07:48:49;30.02;;;26.52;;
32236;SDS011;18726;44.732;10.550;2024-01-30T07:51:56;35.70;;;32.00;;
32236;SDS011;18726;44.732;10.550;2024-01-30T07:54:59;29.23;;;26.33;;
32236;SDS011;18726;44.732;10.550;2024-01-30T07:58:03;29.42;;;26.23;;
32236;SDS011;18726;44.732;10.550;2024-01-30T08:01:08;31.00;;;27.63;;
32236;SDS011;18726;44.732;10.550;2024-01-30T08:04:12;30.38;;;26.77;;
32236;SDS011;18726;44.732;10.550;2024-01-30T08:07:16;30.05;;;27.20;;
32236;SDS011;18726;44.732;10.550;2024-01-30T08:10:20;31.08;;;27.95;;
32236;SDS011;18726;44.732;10.550;2024-01-30T08:13:24;29.70;;;26.83;;
32236;SDS011;18726;44.732;10.550;2024-01-30T08:16:27;28.90;;;26.17;;
32236;SDS011;18726;44.732;10.550;2024-01-30T08:19:31;30.63;;;27.63;;
32236;SDS011;18726;44.732;10.550;2024-01-30T08:22:37;30.30;;;27.40;;
32236;SDS011;18726;44.732;10.550;2024-01-30T08:25:43;30.50;;;27.52;;
32236;SDS011;18726;44.732;10.550;2024-01-30T08:28:46;29.92;;;26.80;;
32236;SDS011;18726;44.732;10.550;2024-01-30T08:31:50;33.00;;;29.67;;
32236;SDS011;18726;44.732;10.550;2024-01-30T08:34:53;32.28;;;28.92;;
32236;SDS011;18726;44.732;10.550;2024-01-30T08:37:57;34.25;;;29.63;;
32236;SDS011;18726;44.732;10.550;2024-01-30T08:41:00;35.72;;;32.35;;
32236;SDS011;18726;44.732;10.550;2024-01-30T08:44:04;35.28;;;31.58;;
32236;SDS011;18726;44.732;10.550;2024-01-30T08:47:08;35.45;;;31.70;;
32236;SDS011;18726;44.732;10.550;2024-01-30T08:50:12;35.42;;;31.85;;
32236;SDS011;18726;44.732;10.550;2024-01-30T08:53:16;36.55;;;32.67;;
32236;SDS011;18726;44.732;10.550;2024-01-30T08:56:20;36.15;;;32.20;;
32236;SDS011;18726;44.732;10.550;2024-01-30T08:59:24;36.28;;;32.65;;
32236;SDS011;18726;44.732;10.550;2024-01-30T09:02:27;37.50;;;33.72;;
32236;SDS011;18726;44.732;10.550;2024-01-30T09:05:30;36.33;;;32.88;;
32236;SDS011;18726;44.732;10.550;2024-01-30T09:08:34;36.20;;;32.80;;
32236;SDS011;18726;44.732;10.550;2024-01-30T09:11:38;34.60;;;31.52;;
32236;SDS011;18726;44.732;10.550;2024-01-30T09:14:42;32.63;;;29.45;;
32236;SDS011;18726;44.732;10.550;2024-01-30T09:17:46;30.02;;;27.42;;
32236;SDS011;18726;44.732;10.550;2024-01-30T09:20:49;32.42;;;27.17;;
32236;SDS011;18726;44.732;10.550;2024-01-30T09:23:54;29.80;;;26.98;;
32236;SDS011;18726;44.732;10.550;2024-01-30T09:26:58;30.08;;;26.90;;
32236;SDS011;18726;44.732;10.550;2024-01-30T09:30:02;26.27;;;23.92;;
32236;SDS011;18726;44.732;10.550;2024-01-30T09:33:06;29.42;;;26.08;;
32236;SDS011;18726;44.732;10.550;2024-01-30T09:36:10;25.65;;;23.17;;
32236;SDS011;18726;44.732;10.550;2024-01-30T09:39:14;24.75;;;22.25;;
32236;SDS011;18726;44.732;10.550;2024-01-30T09:45:38;23.90;;;21.80;;
32236;SDS011;18726;44.732;10.550;2024-01-30T09:48:47;23.95;;;21.83;;
32236;SDS011;18726;44.732;10.550;2024-01-30T09:51:52;22.33;;;20.05;;
32236;SDS011;18726;44.732;10.550;2024-01-30T09:54:57;22.70;;;20.60;;
32236;SDS011;18726;44.732;10.550;2024-01-30T09:58:06;21.20;;;19.27;;
32236;SDS011;18726;44.732;10.550;2024-01-30T10:01:10;21.08;;;19.33;;
32236;SDS011;18726;44.732;10.550;2024-01-30T10:04:14;20.60;;;18.70;;
32236;SDS011;18726;44.732;10.550;2024-01-30T10:07:17;20.17;;;18.38;;
32236;SDS011;18726;44.732;10.550;2024-01-30T10:10:25;21.10;;;18.90;;
32236;SDS011;18726;44.732;10.550;2024-01-30T10:13:29;19.67;;;18.08;;
32236;SDS011;18726;44.732;10.550;2024-01-30T10:16:34;21.30;;;19.50;;
32236;SDS011;18726;44.732;10.550;2024-01-30T10:19:38;19.98;;;18.15;;
32236;SDS011;18726;44.732;10.550;2024-01-30T10:22:44;21.02;;;19.02;;
32236;SDS011;18726;44.732;10.550;2024-01-30T10:25:50;21.60;;;19.55;;
32236;SDS011;18726;44.732;10.550;2024-01-30T10:28:55;21.75;;;19.67;;
32236;SDS011;18726;44.732;10.550;2024-01-30T10:31:59;20.10;;;18.25;;
32236;SDS011;18726;44.732;10.550;2024-01-30T10:35:03;20.42;;;18.73;;
32236;SDS011;18726;44.732;10.550;2024-01-30T10:38:07;20.35;;;18.58;;
32236;SDS011;18726;44.732;10.550;2024-01-30T10:41:17;21.75;;;19.45;;
32236;SDS011;18726;44.732;10.550;2024-01-30T10:44:28;20.58;;;18.63;;
32236;SDS011;18726;44.732;10.550;2024-01-30T10:47:36;24.10;;;21.73;;
32236;SDS011;18726;44.732;10.550;2024-01-30T10:50:41;23.67;;;21.02;;
32236;SDS011;18726;44.732;10.550;2024-01-30T10:53:46;28.17;;;25.42;;
32236;SDS011;18726;44.732;10.550;2024-01-30T10:56:52;27.88;;;25.17;;
32236;SDS011;18726;44.732;10.550;2024-01-30T10:59:57;27.60;;;24.88;;
32236;SDS011;18726;44.732;10.550;2024-01-30T11:03:03;28.13;;;25.35;;
32236;SDS011;18726;44.732;10.550;2024-01-30T11:06:10;30.40;;;25.83;;
32236;SDS011;18726;44.732;10.550;2024-01-30T11:09:16;32.28;;;26.90;;
32236;SDS011;18726;44.732;10.550;2024-01-30T11:12:22;31.15;;;27.83;;
32236;SDS011;18726;44.732;10.550;2024-01-30T11:15:27;32.03;;;27.30;;
32236;SDS011;18726;44.732;10.550;2024-01-30T11:18:32;33.28;;;29.83;;
32236;SDS011;18726;44.732;10.550;2024-01-30T11:21:42;32.05;;;27.67;;
32236;SDS011;18726;44.732;10.550;2024-01-30T11:24:46;30.73;;;27.45;;
32236;SDS011;18726;44.732;10.550;2024-01-30T11:27:51;30.25;;;27.20;;
32236;SDS011;18726;44.732;10.550;2024-01-30T11:31:05;34.13;;;30.52;;
32236;SDS011;18726;44.732;10.550;2024-01-30T11:34:10;33.08;;;28.52;;
32236;SDS011;18726;44.732;10.550;2024-01-30T11:37:14;35.05;;;28.85;;
32236;SDS011;18726;44.732;10.550;2024-01-30T11:40:19;33.13;;;29.23;;
32236;SDS011;18726;44.732;10.550;2024-01-30T11:43:22;31.83;;;28.42;;
32236;SDS011;18726;44.732;10.550;2024-01-30T11:46:27;32.05;;;28.65;;
32236;SDS011;18726;44.732;10.550;2024-01-30T11:49:31;32.58;;;28.05;;
32236;SDS011;18726;44.732;10.550;2024-01-30T11:52:35;35.03;;;28.25;;
32236;SDS011;18726;44.732;10.550;2024-01-30T11:55:39;31.38;;;28.02;;
32236;SDS011;18726;44.732;10.550;2024-01-30T11:58:43;35.58;;;29.40;;
32236;SDS011;18726;44.732;10.550;2024-01-30T12:01:47;33.97;;;29.50;;
32236;SDS011;18726;44.732;10.550;2024-01-30T12:04:52;39.47;;;32.72;;
32236;SDS011;18726;44.732;10.550;2024-01-30T12:07:55;39.05;;;31.48;;
32236;SDS011;18726;44.732;10.550;2024-01-30T12:11:02;39.38;;;32.83;;
32236;SDS011;18726;44.732;10.550;2024-01-30T12:14:08;36.30;;;31.38;;
32236;SDS011;18726;44.732;10.550;2024-01-30T12:17:22;39.20;;;33.13;;
32236;SDS011;18726;44.732;10.550;2024-01-30T12:20:36;44.70;;;34.25;;
32236;SDS011;18726;44.732;10.550;2024-01-30T12:23:40;48.40;;;35.92;;
32236;SDS011;18726;44.732;10.550;2024-01-30T12:26:44;43.97;;;35.75;;
32236;SDS011;18726;44.732;10.550;2024-01-30T12:29:47;44.60;;;38.53;;
32236;SDS011;18726;44.732;10.550;2024-01-30T12:32:50;45.05;;;38.70;;
32236;SDS011;18726;44.732;10.550;2024-01-30T12:35:55;43.38;;;37.30;;
32236;SDS011;18726;44.732;10.550;2024-01-30T12:39:00;49.08;;;39.00;;
32236;SDS011;18726;44.732;10.550;2024-01-30T12:42:04;48.55;;;38.63;;
32236;SDS011;18726;44.732;10.550;2024-01-30T12:45:08;57.67;;;41.55;;
32236;SDS011;18726;44.732;10.550;2024-01-30T12:48:13;53.90;;;40.17;;
32236;SDS011;18726;44.732;10.550;2024-01-30T12:51:17;50.65;;;40.58;;
32236;SDS011;18726;44.732;10.550;2024-01-30T12:54:20;48.83;;;41.22;;
32236;SDS011;18726;44.732;10.550;2024-01-30T12:57:26;55.47;;;42.20;;
32236;SDS011;18726;44.732;10.550;2024-01-30T13:00:30;52.90;;;42.40;;
32236;SDS011;18726;44.732;10.550;2024-01-30T13:03:34;49.88;;;41.42;;
32236;SDS011;18726;44.732;10.550;2024-01-30T13:06:38;54.85;;;42.00;;
32236;SDS011;18726;44.732;10.550;2024-01-30T13:09:42;55.45;;;43.33;;
32236;SDS011;18726;44.732;10.550;2024-01-30T13:12:45;51.45;;;41.97;;
32236;SDS011;18726;44.732;10.550;2024-01-30T13:15:48;59.20;;;48.47;;
32236;SDS011;18726;44.732;10.550;2024-01-30T13:18:52;62.38;;;46.40;;
32236;SDS011;18726;44.732;10.550;2024-01-30T13:21:59;57.53;;;48.55;;
32236;SDS011;18726;44.732;10.550;2024-01-30T13:25:02;60.17;;;47.25;;
32236;SDS011;18726;44.732;10.550;2024-01-30T13:28:06;60.05;;;44.83;;
32236;SDS011;18726;44.732;10.550;2024-01-30T13:31:09;54.38;;;44.45;;
32236;SDS011;18726;44.732;10.550;2024-01-30T13:34:13;53.38;;;42.65;;
32236;SDS011;18726;44.732;10.550;2024-01-30T13:37:17;61.53;;;48.65;;
32236;SDS011;18726;44.732;10.550;2024-01-30T13:40:21;58.17;;;44.92;;
32236;SDS011;18726;44.732;10.550;2024-01-30T13:43:25;54.85;;;42.00;;
32236;SDS011;18726;44.732;10.550;2024-01-30T13:46:30;56.78;;;41.58;;
32236;SDS011;18726;44.732;10.550;2024-01-30T13:49:34;54.05;;;44.13;;
32236;SDS011;18726;44.732;10.550;2024-01-30T13:52:39;56.35;;;45.00;;
32236;SDS011;18726;44.732;10.550;2024-01-30T13:55:42;56.33;;;44.35;;
32236;SDS011;18726;44.732;10.550;2024-01-30T13:58:45;59.55;;;42.85;;
32236;SDS011;18726;44.732;10.550;2024-01-30T14:01:49;56.20;;;44.20;;
32236;SDS011;18726;44.732;10.550;2024-01-30T14:04:55;55.10;;;45.50;;
32236;SDS011;18726;44.732;10.550;2024-01-30T14:07:58;57.35;;;42.80;;
32236;SDS011;18726;44.732;10.550;2024-01-30T14:11:03;55.78;;;44.25;;
32236;SDS011;18726;44.732;10.550;2024-01-30T14:14:07;58.22;;;47.55;;
32236;SDS011;18726;44.732;10.550;2024-01-30T14:17:11;57.80;;;44.83;;
32236;SDS011;18726;44.732;10.550;2024-01-30T14:20:15;51.15;;;41.83;;
32236;SDS011;18726;44.732;10.550;2024-01-30T14:23:22;58.17;;;44.97;;
32236;SDS011;18726;44.732;10.550;2024-01-30T14:26:25;59.50;;;44.05;;
32236;SDS011;18726;44.732;10.550;2024-01-30T14:29:29;55.17;;;44.28;;
32236;SDS011;18726;44.732;10.550;2024-01-30T14:32:33;51.00;;;41.40;;
32236;SDS011;18726;44.732;10.550;2024-01-30T14:35:38;54.92;;;43.42;;
32236;SDS011;18726;44.732;10.550;2024-01-30T14:38:42;52.58;;;41.30;;
32236;SDS011;18726;44.732;10.550;2024-01-30T14:41:45;52.75;;;41.33;;
32236;SDS011;18726;44.732;10.550;2024-01-30T14:44:49;56.00;;;41.20;;
32236;SDS011;18726;44.732;10.550;2024-01-30T14:47:53;56.65;;;42.72;;
32236;SDS011;18726;44.732;10.550;2024-01-30T14:50:59;52.38;;;41.15;;
32236;SDS011;18726;44.732;10.550;2024-01-30T14:54:02;57.17;;;46.22;;
32236;SDS011;18726;44.732;10.550;2024-01-30T14:57:06;58.30;;;45.47;;
32236;SDS011;18726;44.732;10.550;2024-01-30T15:00:12;62.90;;;49.97;;
32236;SDS011;18726;44.732;10.550;2024-01-30T15:03:17;64.45;;;49.55;;
32236;SDS011;18726;44.732;10.550;2024-01-30T15:06:21;62.78;;;49.40;;
32236;SDS011;18726;44.732;10.550;2024-01-30T15:09:28;65.38;;;49.15;;
32236;SDS011;18726;44.732;10.550;2024-01-30T15:12:32;70.35;;;50.83;;
32236;SDS011;18726;44.732;10.550;2024-01-30T15:15:35;70.07;;;50.85;;
32236;SDS011;18726;44.732;10.550;2024-01-30T15:18:39;71.30;;;50.38;;
32236;SDS011;18726;44.732;10.550;2024-01-30T15:21:42;73.15;;;49.10;;
32236;SDS011;18726;44.732;10.550;2024-01-30T15:24:46;68.75;;;50.45;;
32236;SDS011;18726;44.732;10.550;2024-01-30T15:27:50;67.70;;;46.83;;
32236;SDS011;18726;44.732;10.550;2024-01-30T15:30:54;68.75;;;51.92;;
32236;SDS011;18726;44.732;10.550;2024-01-30T15:33:58;68.05;;;50.83;;
32236;SDS011;18726;44.732;10.550;2024-01-30T15:37:02;67.28;;;49.65;;
32236;SDS011;18726;44.732;10.550;2024-01-30T15:40:06;74.60;;;51.10;;
32236;SDS011;18726;44.732;10.550;2024-01-30T15:43:11;69.00;;;52.15;;
32236;SDS011;18726;44.732;10.550;2024-01-30T15:46:15;69.13;;;50.53;;
32236;SDS011;18726;44.732;10.550;2024-01-30T15:49:19;60.60;;;46.25;;
32236;SDS011;18726;44.732;10.550;2024-01-30T15:52:22;63.05;;;46.75;;
32236;SDS011;18726;44.732;10.550;2024-01-30T15:55:26;63.53;;;46.08;;
32236;SDS011;18726;44.732;10.550;2024-01-30T15:58:29;66.40;;;46.05;;
32236;SDS011;18726;44.732;10.550;2024-01-30T16:01:34;66.53;;;47.50;;
32236;SDS011;18726;44.732;10.550;2024-01-30T16:04:38;61.22;;;45.75;;
32236;SDS011;18726;44.732;10.550;2024-01-30T16:07:41;62.30;;;46.25;;
32236;SDS011;18726;44.732;10.550;2024-01-30T16:10:45;62.13;;;46.72;;
32236;SDS011;18726;44.732;10.550;2024-01-30T16:13:49;63.28;;;46.65;;
32236;SDS011;18726;44.732;10.550;2024-01-30T16:16:55;67.50;;;47.70;;
32236;SDS011;18726;44.732;10.550;2024-01-30T16:19:58;64.53;;;46.90;;
32236;SDS011;18726;44.732;10.550;2024-01-30T16:23:02;71.43;;;47.38;;
32236;SDS011;18726;44.732;10.550;2024-01-30T16:26:06;65.00;;;48.60;;
32236;SDS011;18726;44.732;10.550;2024-01-30T16:29:10;62.28;;;47.88;;
32236;SDS011;18726;44.732;10.550;2024-01-30T16:32:14;62.65;;;46.85;;
32236;SDS011;18726;44.732;10.550;2024-01-30T16:35:18;65.72;;;48.58;;
32236;SDS011;18726;44.732;10.550;2024-01-30T16:38:21;62.92;;;48.30;;
32236;SDS011;18726;44.732;10.550;2024-01-30T16:41:25;68.88;;;47.55;;
32236;SDS011;18726;44.732;10.550;2024-01-30T16:44:29;63.03;;;46.72;;
32236;SDS011;18726;44.732;10.550;2024-01-30T16:47:33;64.50;;;46.67;;
32236;SDS011;18726;44.732;10.550;2024-01-30T16:50:37;62.90;;;46.85;;
32236;SDS011;18726;44.732;10.550;2024-01-30T16:53:41;64.10;;;44.88;;
32236;SDS011;18726;44.732;10.550;2024-01-30T16:56:46;62.78;;;45.60;;
32236;SDS011;18726;44.732;10.550;2024-01-30T16:59:53;61.38;;;45.85;;
32236;SDS011;18726;44.732;10.550;2024-01-30T17:02:56;61.60;;;45.03;;
32236;SDS011;18726;44.732;10.550;2024-01-30T17:06:00;67.40;;;47.33;;
32236;SDS011;18726;44.732;10.550;2024-01-30T17:09:08;76.47;;;53.95;;
32236;SDS011;18726;44.732;10.550;2024-01-30T17:12:13;78.07;;;55.95;;
32236;SDS011;18726;44.732;10.550;2024-01-30T17:15:17;72.40;;;53.78;;
32236;SDS011;18726;44.732;10.550;2024-01-30T17:18:21;71.07;;;53.05;;
32236;SDS011;18726;44.732;10.550;2024-01-30T17:21:24;76.90;;;54.55;;
32236;SDS011;18726;44.732;10.550;2024-01-30T17:24:29;84.82;;;59.30;;
32236;SDS011;18726;44.732;10.550;2024-01-30T17:27:32;79.05;;;56.92;;
32236;SDS011;18726;44.732;10.550;2024-01-30T17:30:36;75.40;;;54.20;;
32236;SDS011;18726;44.732;10.550;2024-01-30T17:33:40;71.00;;;53.20;;
32236;SDS011;18726;44.732;10.550;2024-01-30T17:36:44;77.65;;;55.95;;
32236;SDS011;18726;44.732;10.550;2024-01-30T17:39:48;87.13;;;62.38;;
32236;SDS011;18726;44.732;10.550;2024-01-30T17:42:52;97.30;;;62.40;;
32236;SDS011;18726;44.732;10.550;2024-01-30T17:45:56;90.88;;;64.72;;
32236;SDS011;18726;44.732;10.550;2024-01-30T17:49:00;89.65;;;64.22;;
32236;SDS011;18726;44.732;10.550;2024-01-30T17:52:05;98.80;;;66.18;;